Time;durP1;ratioP1;P1;durP2;ratioP2;P2;SDS_P1;SDS_P2;PMS_P1;PMS_P2;Temp;Humidity;BMP_temperature;BMP_pressure;BME280_temperature;BME280_humidity;BME280_pressure;Samples;Min_cycle;Max_cycle;Signal;HPM_P1;HPM_P2
2024/01/30 00:01:52;;;;;;;8.97;4.80;;;;;;;;;;5072219;28;20419;-78
2024/01/30 00:04:18;;;;;;;6.00;5.40;;;;;;;;;;5072260;28;20502;-85
2024/01/30 00:06:45;;;;;;;7.10;4.50;;;;;;;;;;5072123;28;20499;-82
2024/01/30 00:09:10;;;;;;;6.03;4.47;;;;;;;;;;5072198;28;20408;-81
2024/01/30 00:11:37;;;;;;;7.17;5.30;;;;;;;;;;5071787;28;20815;-83
2024/01/30 00:14:03;;;;;;;5.37;3.87;;;;;;;;;;5054275;28;20419;-83
2024/01/30 00:16:29;;;;;;;9.20;5.73;;;;;;;;;;5072353;28;20415;-85
2024/01/30 00:18:55;;;;;;;8.30;6.17;;;;;;;;;;5054165;28;20426;-83
2024/01/30 00:21:21;;;;;;;8.40;5.83;;;;;;;;;;5072024;28;20574;-83
2024/01/30 00:23:48;;;;;;;6.40;4.97;;;;;;;;;;5072028;28;20470;-81
2024/01/30 00:26:14;;;;;;;7.60;5.13;;;;;;;;;;5051725;28;20409;-81
2024/01/30 00:28:40;;;;;;;5.40;4.87;;;;;;;;;;5054226;28;20412;-83
2024/01/30 00:31:07;;;;;;;6.87;5.70;;;;;;;;;;5054091;28;20429;-82
2024/01/30 00:33:33;;;;;;;9.00;5.37;;;;;;;;;;5056652;28;20415;-82
2024/01/30 00:35:58;;;;;;;6.90;4.60;;;;;;;;;;5075575;28;20883;-82
2024/01/30 00:38:24;;;;;;;8.23;4.60;;;;;;;;;;5075568;28;20426;-82
2024/01/30 00:40:50;;;;;;;8.87;5.30;;;;;;;;;;5075142;28;20415;-83
2024/01/30 00:43:16;;;;;;;8.50;5.60;;;;;;;;;;5075540;28;20899;-82
2024/01/30 00:45:46;;;;;;;7.80;4.97;;;;;;;;;;5075699;28;20431;-86
2024/01/30 00:48:12;;;;;;;6.87;4.40;;;;;;;;;;5085614;28;20902;-85
2024/01/30 00:50:38;;;;;;;7.80;5.60;;;;;;;;;;5095410;28;20416;-83
2024/01/30 00:53:04;;;;;;;9.73;5.40;;;;;;;;;;5095591;28;20501;-84
2024/01/30 00:55:30;;;;;;;7.87;5.37;;;;;;;;;;5095704;28;20403;-83
2024/01/30 00:57:56;;;;;;;12.23;6.20;;;;;;;;;;5095450;28;20917;-84
2024/01/30 01:00:23;;;;;;;8.17;6.97;;;;;;;;;;5095737;28;20861;-85
2024/01/30 01:02:49;;;;;;;6.67;5.63;;;;;;;;;;5095525;28;20825;-85
2024/01/30 01:05:15;;;;;;;8.53;5.70;;;;;;;;;;5095638;28;20418;-85
2024/01/30 01:07:42;;;;;;;6.73;4.27;;;;;;;;;;5095560;28;20919;-83
2024/01/30 01:10:08;;;;;;;7.30;5.73;;;;;;;;;;5095635;28;20450;-84
2024/01/30 01:12:34;;;;;;;8.43;4.70;;;;;;;;;;5095146;28;20509;-85
2024/01/30 01:15:00;;;;;;;7.43;5.00;;;;;;;;;;5076494;28;20421;-82
2024/01/30 01:17:27;;;;;;;6.23;4.70;;;;;;;;;;5095455;28;20417;-84
2024/01/30 01:19:52;;;;;;;8.10;4.67;;;;;;;;;;5095034;28;20414;-82
2024/01/30 01:22:18;;;;;;;6.80;5.43;;;;;;;;;;5095040;28;20495;-80
2024/01/30 01:24:44;;;;;;;7.90;7.10;;;;;;;;;;5094932;28;20415;-83
2024/01/30 01:27:10;;;;;;;8.00;5.33;;;;;;;;;;5076583;28;20817;-84
2024/01/30 01:29:36;;;;;;;6.17;4.83;;;;;;;;;;5095144;28;20476;-83
2024/01/30 01:32:02;;;;;;;7.57;6.40;;;;;;;;;;5094812;28;20415;-81
2024/01/30 01:34:28;;;;;;;7.70;6.63;;;;;;;;;;5094826;28;20891;-82
2024/01/30 01:36:55;;;;;;;7.77;5.87;;;;;;;;;;5094684;28;20411;-81
2024/01/30 01:39:21;;;;;;;8.83;5.83;;;;;;;;;;5094829;28;20418;-83
2024/01/30 01:41:47;;;;;;;6.47;4.80;;;;;;;;;;5094334;28;20407;-84
2024/01/30 01:44:12;;;;;;;7.37;5.37;;;;;;;;;;5094178;28;20469;-83
2024/01/30 01:46:38;;;;;;;8.23;5.50;;;;;;;;;;5095209;28;20870;-81
2024/01/30 01:49:05;;;;;;;8.87;5.13;;;;;;;;;;5095031;28;20414;-85
2024/01/30 01:51:31;;;;;;;8.40;6.20;;;;;;;;;;5095199;28;20497;-90
2024/01/30 01:53:58;;;;;;;9.47;4.90;;;;;;;;;;5095259;28;20792;-85
2024/01/30 01:56:25;;;;;;;6.77;4.60;;;;;;;;;;5094587;28;20518;-81
2024/01/30 01:58:51;;;;;;;6.50;5.13;;;;;;;;;;5093966;28;20487;-83
2024/01/30 02:01:20;;;;;;;7.20;5.70;;;;;;;;;;5094316;28;20417;-84
2024/01/30 02:03:46;;;;;;;7.53;5.10;;;;;;;;;;5076466;28;20556;-85
2024/01/30 02:06:13;;;;;;;8.43;6.50;;;;;;;;;;5094730;28;20475;-83
2024/01/30 02:08:39;;;;;;;7.77;6.10;;;;;;;;;;5094560;28;20414;-82
2024/01/30 02:11:05;;;;;;;8.70;6.57;;;;;;;;;;5093671;28;20406;-81
2024/01/30 02:13:31;;;;;;;9.30;5.57;;;;;;;;;;5093685;28;20816;-81
2024/01/30 02:15:57;;;;;;;9.60;6.63;;;;;;;;;;5094096;28;20402;-82
2024/01/30 02:18:23;;;;;;;8.90;5.83;;;;;;;;;;5093791;28;20409;-81
2024/01/30 02:20:49;;;;;;;8.73;6.17;;;;;;;;;;5093632;28;20765;-81
2024/01/30 02:23:20;;;;;;;6.00;3.73;;;;;;;;;;5093501;28;20484;-81
2024/01/30 02:25:46;;;;;;;13.40;6.00;;;;;;;;;;5093491;28;20468;-81
2024/01/30 02:28:12;;;;;;;7.77;5.17;;;;;;;;;;5093744;28;20883;-80
2024/01/30 02:30:38;;;;;;;9.90;5.77;;;;;;;;;;5093490;28;20470;-81
2024/01/30 02:33:04;;;;;;;9.80;6.60;;;;;;;;;;5093533;28;20442;-80
2024/01/30 02:35:30;;;;;;;8.20;5.73;;;;;;;;;;5093625;28;20408;-81
2024/01/30 02:37:56;;;;;;;9.03;5.63;;;;;;;;;;5093595;28;20405;-81
2024/01/30 02:40:22;;;;;;;6.83;5.63;;;;;;;;;;5093128;28;20403;-81
2024/01/30 02:42:48;;;;;;;9.03;6.00;;;;;;;;;;5075688;28;20558;-83
2024/01/30 02:45:14;;;;;;;9.83;6.93;;;;;;;;;;5094475;28;20495;-81
2024/01/30 02:47:40;;;;;;;7.13;6.00;;;;;;;;;;5094640;28;20820;-84
2024/01/30 02:50:06;;;;;;;9.17;6.30;;;;;;;;;;5093030;28;20414;-83
2024/01/30 02:52:33;;;;;;;7.60;6.20;;;;;;;;;;5090736;28;20919;-85
2024/01/30 02:54:58;;;;;;;9.50;6.20;;;;;;;;;;5091584;28;20907;-81
2024/01/30 02:57:24;;;;;;;10.87;8.30;;;;;;;;;;5072714;28;20450;-85
2024/01/30 02:59:50;;;;;;;12.00;8.60;;;;;;;;;;5092770;28;20406;-82
2024/01/30 03:02:16;;;;;;;9.47;7.07;;;;;;;;;;5091994;28;20427;-82
2024/01/30 03:04:42;;;;;;;11.50;6.53;;;;;;;;;;5090109;28;20501;-84
2024/01/30 03:07:08;;;;;;;9.70;6.03;;;;;;;;;;5091956;28;20553;-82
2024/01/30 03:09:34;;;;;;;9.13;6.53;;;;;;;;;;5092679;28;20414;-81
2024/01/30 03:12:00;;;;;;;9.53;7.23;;;;;;;;;;5091294;28;20497;-81
2024/01/30 03:14:26;;;;;;;10.10;5.70;;;;;;;;;;5093018;28;20415;-83
2024/01/30 03:16:52;;;;;;;7.83;5.70;;;;;;;;;;5092705;28;20459;-84
2024/01/30 03:19:18;;;;;;;8.73;6.60;;;;;;;;;;5092372;28;20747;-82
2024/01/30 03:21:44;;;;;;;11.80;8.50;;;;;;;;;;5092871;28;20408;-85
2024/01/30 03:24:10;;;;;;;9.27;7.10;;;;;;;;;;5092843;28;20561;-84
2024/01/30 03:26:36;;;;;;;8.80;7.80;;;;;;;;;;5092327;28;20415;-85
2024/01/30 03:29:02;;;;;;;9.30;6.90;;;;;;;;;;5090182;28;20469;-85
2024/01/30 03:31:28;;;;;;;8.27;6.90;;;;;;;;;;5093286;28;20772;-82
2024/01/30 03:33:54;;;;;;;9.40;6.13;;;;;;;;;;5093026;28;20496;-82
2024/01/30 03:36:20;;;;;;;8.70;7.00;;;;;;;;;;5092677;28;20412;-83
2024/01/30 03:38:46;;;;;;;10.33;6.77;;;;;;;;;;5092644;28;20412;-85
2024/01/30 03:41:12;;;;;;;12.10;7.23;;;;;;;;;;5092498;28;20422;-83
2024/01/30 03:43:38;;;;;;;10.63;6.97;;;;;;;;;;5092574;28;20458;-85
2024/01/30 03:46:04;;;;;;;9.60;7.97;;;;;;;;;;5092956;28;20447;-83
2024/01/30 03:48:30;;;;;;;12.43;6.37;;;;;;;;;;5092783;28;20407;-84
2024/01/30 03:50:56;;;;;;;11.83;7.07;;;;;;;;;;5092709;28;20403;-85
2024/01/30 03:53:22;;;;;;;9.90;6.83;;;;;;;;;;5092802;28;20778;-84
2024/01/30 03:55:48;;;;;;;8.43;7.40;;;;;;;;;;5092315;28;20409;-82
2024/01/30 03:58:14;;;;;;;9.93;6.60;;;;;;;;;;5092695;28;20457;-84
2024/01/30 04:00:40;;;;;;;11.17;6.37;;;;;;;;;;5092521;28;20410;-84
2024/01/30 04:03:06;;;;;;;10.80;8.00;;;;;;;;;;5092621;28;20458;-83
2024/01/30 04:05:32;;;;;;;9.07;6.80;;;;;;;;;;5092756;28;20409;-87
2024/01/30 04:07:58;;;;;;;9.13;7.00;;;;;;;;;;5094493;28;20483;-82
2024/01/30 04:10:24;;;;;;;10.40;7.03;;;;;;;;;;5096409;28;20414;-82
2024/01/30 04:12:51;;;;;;;9.57;6.97;;;;;;;;;;5096879;28;20399;-83
2024/01/30 04:15:17;;;;;;;13.63;8.80;;;;;;;;;;5096649;28;20414;-81
2024/01/30 04:17:43;;;;;;;15.80;8.10;;;;;;;;;;5096247;28;20406;-81
2024/01/30 04:20:14;;;;;;;8.60;7.13;;;;;;;;;;5096370;28;20502;-85
2024/01/30 04:22:40;;;;;;;10.50;7.57;;;;;;;;;;5096152;28;20461;-81
2024/01/30 04:25:08;;;;;;;11.20;8.30;;;;;;;;;;5096478;28;20417;-80
2024/01/30 04:27:34;;;;;;;9.80;7.50;;;;;;;;;;5095899;28;20422;-85
2024/01/30 04:30:00;;;;;;;8.73;7.43;;;;;;;;;;5096411;28;20468;-89
2024/01/30 04:32:26;;;;;;;11.33;9.07;;;;;;;;;;5063653;28;20915;-84
2024/01/30 04:34:52;;;;;;;10.77;8.07;;;;;;;;;;5092778;28;20466;-84
2024/01/30 04:37:18;;;;;;;13.40;8.90;;;;;;;;;;5096250;28;20901;-83
2024/01/30 04:39:44;;;;;;;12.20;8.10;;;;;;;;;;5095955;28;20399;-81
2024/01/30 04:42:13;;;;;;;11.83;7.53;;;;;;;;;;5095248;28;20398;-80
2024/01/30 04:44:38;;;;;;;9.40;8.00;;;;;;;;;;5095585;28;20412;-86
2024/01/30 04:47:06;;;;;;;14.30;8.40;;;;;;;;;;5095685;28;20399;-85
2024/01/30 04:49:32;;;;;;;12.00;8.00;;;;;;;;;;5095896;28;20448;-85
2024/01/30 04:51:58;;;;;;;10.00;7.87;;;;;;;;;;5069217;28;20399;-83
2024/01/30 04:54:24;;;;;;;11.93;9.00;;;;;;;;;;5095455;28;20841;-82
2024/01/30 04:56:50;;;;;;;10.20;6.57;;;;;;;;;;5095182;28;20402;-83
2024/01/30 04:59:16;;;;;;;11.17;7.77;;;;;;;;;;5095485;28;20906;-86
2024/01/30 05:01:42;;;;;;;10.67;8.10;;;;;;;;;;5092862;28;20409;-86
2024/01/30 05:04:11;;;;;;;9.73;7.70;;;;;;;;;;5095423;28;20473;-84
2024/01/30 05:06:36;;;;;;;10.57;8.10;;;;;;;;;;5095663;28;20447;-87
2024/01/30 05:09:04;;;;;;;14.57;9.33;;;;;;;;;;5077202;28;20447;-82
2024/01/30 05:11:30;;;;;;;12.13;8.90;;;;;;;;;;5076928;28;20441;-86
2024/01/30 05:13:56;;;;;;;9.33;8.27;;;;;;;;;;5095634;28;20402;-84
2024/01/30 05:16:22;;;;;;;10.10;8.30;;;;;;;;;;5068819;28;20414;-86
2024/01/30 05:18:47;;;;;;;11.80;7.73;;;;;;;;;;5093846;28;20402;-84
2024/01/30 05:21:13;;;;;;;9.70;8.00;;;;;;;;;;5095027;28;20422;-84
2024/01/30 05:23:41;;;;;;;12.27;8.47;;;;;;;;;;5094534;28;20477;-84
2024/01/30 05:26:07;;;;;;;10.67;8.00;;;;;;;;;;5094350;28;20895;-85
2024/01/30 05:28:33;;;;;;;12.90;8.10;;;;;;;;;;5094259;28;20412;-84
2024/01/30 05:30:59;;;;;;;11.10;8.43;;;;;;;;;;5094653;28;20417;-86
2024/01/30 05:33:25;;;;;;;13.40;8.83;;;;;;;;;;5095433;28;20407;-87
2024/01/30 05:35:54;;;;;;;15.03;8.50;;;;;;;;;;5095251;28;21004;-83
2024/01/30 05:38:20;;;;;;;13.93;8.57;;;;;;;;;;5095526;28;20454;-88
2024/01/30 05:40:48;;;;;;;14.67;10.03;;;;;;;;;;5094787;28;20803;-80
2024/01/30 05:43:14;;;;;;;12.10;8.77;;;;;;;;;;5095470;28;20470;-90
2024/01/30 05:45:40;;;;;;;12.43;8.20;;;;;;;;;;5095581;28;20410;-80
2024/01/30 05:48:06;;;;;;;12.07;8.73;;;;;;;;;;5094969;28;20778;-88
2024/01/30 05:50:32;;;;;;;11.50;8.93;;;;;;;;;;5094857;28;20405;-87
2024/01/30 05:52:57;;;;;;;12.20;8.90;;;;;;;;;;5094914;28;20500;-82
2024/01/30 05:55:23;;;;;;;10.87;7.77;;;;;;;;;;5094613;28;20760;-85
2024/01/30 05:57:50;;;;;;;11.57;8.10;;;;;;;;;;5094779;28;20435;-90
2024/01/30 06:00:16;;;;;;;11.53;8.80;;;;;;;;;;5076431;28;20502;-85
2024/01/30 06:02:42;;;;;;;11.67;9.50;;;;;;;;;;5094617;28;20447;-82
2024/01/30 06:05:08;;;;;;;12.10;8.50;;;;;;;;;;5094399;28;20411;-82
2024/01/30 06:07:34;;;;;;;16.30;8.73;;;;;;;;;;5094083;28;20434;-82
2024/01/30 06:10:01;;;;;;;12.27;8.50;;;;;;;;;;5093870;28;20877;-81
2024/01/30 06:12:28;;;;;;;15.30;9.00;;;;;;;;;;5094327;28;20421;-82
2024/01/30 06:14:56;;;;;;;15.73;9.80;;;;;;;;;;5094122;28;20403;-81
2024/01/30 06:17:22;;;;;;;12.73;8.60;;;;;;;;;;5091313;28;20464;-83
2024/01/30 06:19:48;;;;;;;12.70;8.90;;;;;;;;;;5094007;28;20492;-81
2024/01/30 06:22:14;;;;;;;11.10;8.57;;;;;;;;;;5093992;28;20448;-83
2024/01/30 06:24:40;;;;;;;12.17;9.70;;;;;;;;;;5093709;28;20761;-82
2024/01/30 06:27:06;;;;;;;12.00;7.43;;;;;;;;;;5093527;28;20496;-82
2024/01/30 06:29:32;;;;;;;12.03;9.23;;;;;;;;;;5093892;28;20455;-82
2024/01/30 06:31:57;;;;;;;17.10;10.03;;;;;;;;;;5093650;28;20746;-81
2024/01/30 06:34:23;;;;;;;14.10;9.50;;;;;;;;;;5093840;28;20449;-83
2024/01/30 06:36:49;;;;;;;13.20;9.03;;;;;;;;;;5093958;28;20409;-84
2024/01/30 06:39:15;;;;;;;11.67;8.80;;;;;;;;;;5094218;28;20411;-83
2024/01/30 06:41:41;;;;;;;14.73;9.97;;;;;;;;;;5093683;28;20422;-81
2024/01/30 06:44:08;;;;;;;12.90;10.30;;;;;;;;;;5093743;28;20499;-82
2024/01/30 06:46:34;;;;;;;13.33;8.23;;;;;;;;;;5093812;28;20398;-82
2024/01/30 06:49:00;;;;;;;14.80;8.67;;;;;;;;;;5075279;28;20742;-83
2024/01/30 06:51:26;;;;;;;11.77;9.33;;;;;;;;;;5093598;28;20405;-82
2024/01/30 06:53:52;;;;;;;13.17;7.80;;;;;;;;;;5107461;28;20437;-84
2024/01/30 06:56:21;;;;;;;14.87;10.03;;;;;;;;;;5100811;28;20414;-90
2024/01/30 06:58:58;;;;;;;13.77;9.07;;;;;;;;;;5094070;28;20424;-88
2024/01/30 07:01:28;;;;;;;11.17;9.17;;;;;;;;;;5093772;28;20906;-89
2024/01/30 07:03:54;;;;;;;14.00;9.50;;;;;;;;;;5094033;28;20563;-84
2024/01/30 07:06:20;;;;;;;15.50;10.03;;;;;;;;;;5100624;28;20957;-87
2024/01/30 07:08:46;;;;;;;15.83;11.13;;;;;;;;;;5093282;28;20449;-83
2024/01/30 07:11:18;;;;;;;11.97;9.40;;;;;;;;;;5092996;28;20434;-83
2024/01/30 07:13:44;;;;;;;12.10;9.07;;;;;;;;;;5093359;28;20403;-84
2024/01/30 07:16:10;;;;;;;12.70;9.33;;;;;;;;;;5093242;28;20472;-82
2024/01/30 07:18:36;;;;;;;17.90;11.60;;;;;;;;;;5092881;28;20460;-86
2024/01/30 07:21:02;;;;;;;15.30;10.60;;;;;;;;;;5093190;28;20975;-83
2024/01/30 07:23:29;;;;;;;14.97;11.10;;;;;;;;;;5092877;28;20474;-83
2024/01/30 07:25:55;;;;;;;15.87;11.00;;;;;;;;;;5092874;28;20411;-86
2024/01/30 07:28:22;;;;;;;19.80;10.83;;;;;;;;;;5093807;28;20481;-86
2024/01/30 07:30:48;;;;;;;16.70;10.50;;;;;;;;;;5093430;28;20415;-87
2024/01/30 07:33:14;;;;;;;15.70;9.97;;;;;;;;;;5092644;28;20411;-83
2024/01/30 07:35:40;;;;;;;19.10;13.30;;;;;;;;;;5092799;28;20425;-82
2024/01/30 07:38:06;;;;;;;15.63;10.90;;;;;;;;;;5092536;28;20416;-82
2024/01/30 07:40:33;;;;;;;14.30;10.87;;;;;;;;;;5089509;28;20451;-81
2024/01/30 07:42:59;;;;;;;15.70;11.97;;;;;;;;;;5094449;28;20851;-82
2024/01/30 07:45:27;;;;;;;17.57;12.47;;;;;;;;;;5096900;28;20414;-81
2024/01/30 07:47:53;;;;;;;14.73;11.10;;;;;;;;;;5094141;28;20393;-81
2024/01/30 07:50:19;;;;;;;14.00;11.50;;;;;;;;;;5096644;28;20905;-83
2024/01/30 07:52:45;;;;;;;14.73;11.30;;;;;;;;;;5096706;28;20399;-82
2024/01/30 07:55:12;;;;;;;17.57;11.77;;;;;;;;;;5096130;28;20412;-83
2024/01/30 07:57:39;;;;;;;15.53;11.43;;;;;;;;;;5096695;28;20413;-85
2024/01/30 08:00:07;;;;;;;16.20;10.93;;;;;;;;;;5096688;28;20872;-82
2024/01/30 08:02:33;;;;;;;14.53;11.43;;;;;;;;;;5093889;28;20460;-79
2024/01/30 08:04:59;;;;;;;16.07;10.83;;;;;;;;;;5096803;28;20486;-77
2024/01/30 08:07:25;;;;;;;13.97;9.57;;;;;;;;;;5096676;28;20406;-77
2024/01/30 08:09:51;;;;;;;15.43;10.70;;;;;;;;;;5096709;28;20783;-78
2024/01/30 08:12:17;;;;;;;17.80;12.20;;;;;;;;;;5097107;28;20873;-78
2024/01/30 08:14:43;;;;;;;15.40;10.70;;;;;;;;;;5096937;28;20421;-78
2024/01/30 08:17:09;;;;;;;17.50;10.47;;;;;;;;;;5096768;28;20876;-81
2024/01/30 08:19:35;;;;;;;14.77;10.77;;;;;;;;;;5078681;28;21000;-81
2024/01/30 08:22:00;;;;;;;15.17;9.97;;;;;;;;;;5096933;28;20413;-78
2024/01/30 08:24:26;;;;;;;15.83;11.17;;;;;;;;;;5096654;28;20833;-82
2024/01/30 08:26:52;;;;;;;17.17;12.40;;;;;;;;;;5096572;28;20741;-80
2024/01/30 08:29:18;;;;;;;12.10;10.27;;;;;;;;;;5096591;28;21024;-82
2024/01/30 08:31:46;;;;;;;15.27;11.50;;;;;;;;;;5096299;28;20859;-79
2024/01/30 08:34:12;;;;;;;15.03;10.60;;;;;;;;;;5096726;28;20781;-80
2024/01/30 08:36:38;;;;;;;18.97;10.83;;;;;;;;;;5096708;28;20412;-76
2024/01/30 08:39:05;;;;;;;14.53;11.77;;;;;;;;;;5096660;28;20886;-80
2024/01/30 08:41:31;;;;;;;14.90;10.90;;;;;;;;;;5096619;28;20516;-80
2024/01/30 08:43:57;;;;;;;11.30;9.60;;;;;;;;;;5096879;28;20507;-82
2024/01/30 08:46:23;;;;;;;16.40;12.43;;;;;;;;;;5096565;28;20424;-79
2024/01/30 08:48:49;;;;;;;15.33;11.47;;;;;;;;;;5080199;28;20993;-77
2024/01/30 08:51:15;;;;;;;14.20;11.30;;;;;;;;;;5080645;28;20776;-82
2024/01/30 08:53:41;;;;;;;14.57;10.70;;;;;;;;;;5097869;28;20446;-82
2024/01/30 08:56:07;;;;;;;13.93;10.03;;;;;;;;;;5078715;28;20416;-86
2024/01/30 08:58:34;;;;;;;13.47;10.20;;;;;;;;;;5096465;28;20418;-87
2024/01/30 09:01:00;;;;;;;13.77;10.67;;;;;;;;;;5096146;28;20409;-88
2024/01/30 09:03:27;;;;;;;12.20;10.80;;;;;;;;;;5096282;28;20538;-86
2024/01/30 09:05:53;;;;;;;16.23;10.20;;;;;;;;;;5096467;28;20492;-88
2024/01/30 09:08:19;;;;;;;13.50;9.67;;;;;;;;;;5095790;28;20977;-89
2024/01/30 09:10:45;;;;;;;14.70;9.53;;;;;;;;;;5095722;28;20417;-82
2024/01/30 09:13:11;;;;;;;10.57;8.80;;;;;;;;;;5078025;28;20439;-85
2024/01/30 09:15:37;;;;;;;16.87;9.50;;;;;;;;;;5096027;28;20406;-89
2024/01/30 09:18:03;;;;;;;13.00;9.57;;;;;;;;;;5077916;28;20409;-87
2024/01/30 09:20:28;;;;;;;12.03;9.37;;;;;;;;;;5095974;28;20413;-88
2024/01/30 09:22:54;;;;;;;14.77;9.33;;;;;;;;;;5095860;28;20473;-89
2024/01/30 09:25:20;;;;;;;12.80;8.77;;;;;;;;;;5094885;28;20656;-86
2024/01/30 09:27:47;;;;;;;12.67;10.13;;;;;;;;;;5094828;28;20424;-85
2024/01/30 09:30:13;;;;;;;15.90;10.00;;;;;;;;;;5095826;28;20458;-88
2024/01/30 09:32:40;;;;;;;12.40;9.83;;;;;;;;;;5096200;28;20440;-85
2024/01/30 09:35:06;;;;;;;14.23;9.50;;;;;;;;;;5095859;28;20439;-87
2024/01/30 09:37:33;;;;;;;11.50;8.73;;;;;;;;;;5069653;28;20411;-86
2024/01/30 09:39:59;;;;;;;13.60;9.37;;;;;;;;;;5077655;28;20411;-87
2024/01/30 09:42:25;;;;;;;12.23;8.77;;;;;;;;;;5098384;28;20508;-83
2024/01/30 09:44:52;;;;;;;12.03;8.43;;;;;;;;;;5101080;28;20464;-87
2024/01/30 09:47:18;;;;;;;16.47;10.27;;;;;;;;;;5082431;28;20499;-86
2024/01/30 09:49:44;;;;;;;14.87;9.70;;;;;;;;;;5100103;28;20476;-83
2024/01/30 09:52:11;;;;;;;13.10;9.63;;;;;;;;;;5094551;28;20402;-82
2024/01/30 09:54:38;;;;;;;16.97;11.37;;;;;;;;;;5091448;28;20415;-83
2024/01/30 09:57:05;;;;;;;13.73;10.43;;;;;;;;;;5070849;28;20492;-79
2024/01/30 09:59:31;;;;;;;15.50;9.93;;;;;;;;;;5094321;28;20414;-81
2024/01/30 10:01:58;;;;;;;13.23;9.73;;;;;;;;;;5093867;28;20544;-79
2024/01/30 10:04:24;;;;;;;11.80;9.30;;;;;;;;;;5094209;28;20465;-82
2024/01/30 10:06:50;;;;;;;12.63;10.03;;;;;;;;;;5075818;28;20419;-84
2024/01/30 10:09:16;;;;;;;16.10;10.33;;;;;;;;;;5093802;28;20422;-79
2024/01/30 10:11:42;;;;;;;11.20;9.17;;;;;;;;;;5093983;28;20464;-83
2024/01/30 10:14:08;;;;;;;11.47;8.20;;;;;;;;;;5091171;28;20424;-84
2024/01/30 10:16:35;;;;;;;12.83;9.13;;;;;;;;;;5093900;28;20406;-80
2024/01/30 10:19:01;;;;;;;12.40;9.40;;;;;;;;;;5093741;28;20423;-79
2024/01/30 10:21:27;;;;;;;11.57;9.50;;;;;;;;;;5093694;28;20417;-83
2024/01/30 10:23:53;;;;;;;11.50;9.17;;;;;;;;;;5093687;28;20519;-84
2024/01/30 10:26:19;;;;;;;11.90;9.60;;;;;;;;;;5093121;28;20450;-83
2024/01/30 10:28:45;;;;;;;10.80;8.50;;;;;;;;;;5093318;28;20455;-82
2024/01/30 10:31:11;;;;;;;11.23;8.23;;;;;;;;;;5095992;28;20426;-83
2024/01/30 10:33:37;;;;;;;11.93;8.83;;;;;;;;;;5095605;28;20419;-78
2024/01/30 10:36:04;;;;;;;15.73;9.67;;;;;;;;;;5090582;28;20411;-80
2024/01/30 10:38:30;;;;;;;13.23;8.40;;;;;;;;;;5067242;28;20408;-82
2024/01/30 10:41:00;;;;;;;10.80;8.40;;;;;;;;;;5066889;28;20503;-83
2024/01/30 10:43:35;;;;;;;12.30;8.43;;;;;;;;;;5091351;28;20503;-80
2024/01/30 10:46:06;;;;;;;9.87;7.83;;;;;;;;;;5093724;28;20405;-80
2024/01/30 10:48:33;;;;;;;11.90;8.60;;;;;;;;;;5099281;28;20552;-84
2024/01/30 10:51:00;;;;;;;14.20;10.20;;;;;;;;;;5096817;28;20415;-82
2024/01/30 10:53:27;;;;;;;10.27;8.50;;;;;;;;;;5093242;28;20420;-83
2024/01/30 10:55:53;;;;;;;14.20;9.47;;;;;;;;;;5092956;28;20522;-86
2024/01/30 10:58:20;;;;;;;13.70;8.90;;;;;;;;;;5090650;28;20403;-87
2024/01/30 11:00:47;;;;;;;14.47;8.20;;;;;;;;;;5093270;28;20997;-78
2024/01/30 11:03:13;;;;;;;12.27;8.70;;;;;;;;;;5093046;28;20551;-79
2024/01/30 11:05:41;;;;;;;10.53;8.47;;;;;;;;;;5090388;28;20412;-82
2024/01/30 11:08:13;;;;;;;12.13;8.90;;;;;;;;;;5093048;28;20402;-83
2024/01/30 11:10:47;;;;;;;12.00;10.20;;;;;;;;;;5066408;28;20937;-80
2024/01/30 11:13:14;;;;;;;12.40;8.83;;;;;;;;;;5093046;28;20405;-79
2024/01/30 11:15:40;;;;;;;12.57;9.90;;;;;;;;;;5090426;28;20421;-79
2024/01/30 11:18:06;;;;;;;9.70;7.80;;;;;;;;;;5092018;28;20415;-82
2024/01/30 11:20:33;;;;;;;12.57;9.10;;;;;;;;;;5092703;28;20821;-80
2024/01/30 11:23:01;;;;;;;11.43;9.00;;;;;;;;;;5092628;28;21010;-83
2024/01/30 11:25:27;;;;;;;9.50;8.33;;;;;;;;;;5092480;28;20454;-79
2024/01/30 11:27:56;;;;;;;13.23;10.00;;;;;;;;;;5074346;28;20439;-78
2024/01/30 11:30:30;;;;;;;11.83;8.33;;;;;;;;;;5084225;28;20470;-89
2024/01/30 11:33:12;;;;;;;12.93;9.07;;;;;;;;;;5081614;28;20506;-78
2024/01/30 11:35:39;;;;;;;9.20;8.17;;;;;;;;;;5081750;28;20768;-86
2024/01/30 11:38:06;;;;;;;10.90;9.70;;;;;;;;;;5082488;28;20402;-78
2024/01/30 11:40:33;;;;;;;11.07;8.40;;;;;;;;;;5083112;28;20508;-78
2024/01/30 11:43:00;;;;;;;12.70;8.83;;;;;;;;;;5063389;28;21031;-79
2024/01/30 11:45:26;;;;;;;11.97;9.53;;;;;;;;;;5081506;28;20438;-78
2024/01/30 11:47:52;;;;;;;13.93;8.90;;;;;;;;;;5081657;28;20764;-79
2024/01/30 11:50:18;;;;;;;10.80;8.73;;;;;;;;;;5073803;28;20938;-78
2024/01/30 11:52:44;;;;;;;10.73;7.97;;;;;;;;;;5082404;28;20437;-80
2024/01/30 11:55:11;;;;;;;13.80;9.43;;;;;;;;;;5081440;28;20955;-78
2024/01/30 11:57:37;;;;;;;10.77;8.00;;;;;;;;;;5083795;28;20425;-78
2024/01/30 12:00:10;;;;;;;10.93;9.37;;;;;;;;;;5082408;28;20408;-78
2024/01/30 12:02:39;;;;;;;13.53;9.20;;;;;;;;;;5084027;28;20415;-79
2024/01/30 12:05:06;;;;;;;10.53;8.50;;;;;;;;;;5083829;28;20427;-79
2024/01/30 12:07:32;;;;;;;15.93;8.50;;;;;;;;;;5083590;28;20410;-79
2024/01/30 12:09:58;;;;;;;13.23;9.90;;;;;;;;;;5083348;28;20416;-79
2024/01/30 12:12:28;;;;;;;11.50;9.37;;;;;;;;;;5082428;28;20770;-79
2024/01/30 12:14:54;;;;;;;11.90;9.50;;;;;;;;;;5081359;28;20792;-78
2024/01/30 12:17:32;;;;;;;10.97;8.43;;;;;;;;;;5081466;28;20404;-87
2024/01/30 12:20:06;;;;;;;10.33;8.37;;;;;;;;;;5080684;28;20879;-80
2024/01/30 12:22:32;;;;;;;11.33;7.70;;;;;;;;;;5081037;28;20880;-79
2024/01/30 12:24:58;;;;;;;9.37;7.57;;;;;;;;;;5080712;28;20458;-79
2024/01/30 12:27:24;;;;;;;11.30;8.20;;;;;;;;;;5082914;28;20408;-79
2024/01/30 12:29:56;;;;;;;10.60;8.07;;;;;;;;;;5092435;28;20467;-78
2024/01/30 12:32:23;;;;;;;9.07;7.23;;;;;;;;;;5099349;28;20480;-78
2024/01/30 12:34:49;;;;;;;11.40;8.00;;;;;;;;;;5077926;28;20943;-78
2024/01/30 12:37:19;;;;;;;9.37;6.70;;;;;;;;;;5096164;28;20412;-80
2024/01/30 12:39:45;;;;;;;10.60;7.13;;;;;;;;;;5095941;28;20227;-79
2024/01/30 12:42:11;;;;;;;12.63;7.53;;;;;;;;;;5095967;28;20510;-80
2024/01/30 12:44:37;;;;;;;11.90;8.03;;;;;;;;;;5095955;28;20554;-80
2024/01/30 12:47:04;;;;;;;10.70;7.80;;;;;;;;;;5095880;28;20412;-79
2024/01/30 12:49:29;;;;;;;9.43;6.70;;;;;;;;;;5095786;28;20416;-79
2024/01/30 12:51:56;;;;;;;10.30;7.43;;;;;;;;;;5095747;28;20415;-79
2024/01/30 12:54:23;;;;;;;10.77;7.87;;;;;;;;;;5077332;28;20785;-79
2024/01/30 12:56:49;;;;;;;10.43;8.03;;;;;;;;;;5075599;28;20569;-80
2024/01/30 12:59:15;;;;;;;16.90;9.63;;;;;;;;;;5075319;28;20497;-79
2024/01/30 13:01:40;;;;;;;12.80;7.10;;;;;;;;;;5086209;28;20414;-79
2024/01/30 13:04:06;;;;;;;10.70;7.03;;;;;;;;;;5090504;28;20467;-79
2024/01/30 13:06:32;;;;;;;9.43;6.63;;;;;;;;;;5086590;28;20180;-81
2024/01/30 13:08:58;;;;;;;8.50;6.53;;;;;;;;;;5074063;28;20755;-79
2024/01/30 13:11:25;;;;;;;10.43;6.43;;;;;;;;;;5094915;28;20174;-78
2024/01/30 13:13:51;;;;;;;8.60;6.03;;;;;;;;;;5094985;28;20187;-79
2024/01/30 13:16:17;;;;;;;9.17;7.07;;;;;;;;;;5096282;28;20413;-80
2024/01/30 13:18:44;;;;;;;10.33;6.87;;;;;;;;;;5095872;28;20414;-79
2024/01/30 13:21:10;;;;;;;12.10;7.10;;;;;;;;;;5095916;28;20508;-78
2024/01/30 13:23:36;;;;;;;11.77;7.70;;;;;;;;;;5089573;28;20896;-78
2024/01/30 13:26:02;;;;;;;8.50;6.60;;;;;;;;;;5075455;28;20410;-79
2024/01/30 13:28:28;;;;;;;9.03;5.93;;;;;;;;;;5075431;28;20799;-78
2024/01/30 13:30:54;;;;;;;7.23;6.00;;;;;;;;;;5094687;28;20787;-81
2024/01/30 13:33:20;;;;;;;11.10;6.60;;;;;;;;;;5092861;28;20438;-84
2024/01/30 13:35:46;;;;;;;10.30;6.57;;;;;;;;;;5080136;28;20406;-87
2024/01/30 13:38:13;;;;;;;7.50;5.73;;;;;;;;;;5100181;28;20480;-82
2024/01/30 13:40:39;;;;;;;10.73;6.37;;;;;;;;;;5077847;28;20414;-82
2024/01/30 13:43:05;;;;;;;9.93;6.53;;;;;;;;;;5097530;28;20494;-81
2024/01/30 13:45:31;;;;;;;8.83;6.03;;;;;;;;;;5079003;28;20517;-84
2024/01/30 13:47:57;;;;;;;13.40;7.97;;;;;;;;;;5111777;28;20476;-85
2024/01/30 13:50:23;;;;;;;11.43;6.47;;;;;;;;;;5112409;28;20438;-78
2024/01/30 13:52:49;;;;;;;10.70;6.87;;;;;;;;;;5115342;28;20428;-79
2024/01/30 13:55:15;;;;;;;10.40;6.90;;;;;;;;;;5114003;28;20458;-82
2024/01/30 13:57:41;;;;;;;11.03;7.10;;;;;;;;;;5115161;28;20418;-81
2024/01/30 14:00:07;;;;;;;9.30;7.27;;;;;;;;;;5115250;28;20416;-79
2024/01/30 14:02:34;;;;;;;12.30;7.50;;;;;;;;;;5115218;28;20916;-80
2024/01/30 14:05:00;;;;;;;8.83;6.70;;;;;;;;;;5114945;28;20425;-79
2024/01/30 14:07:26;;;;;;;9.33;6.70;;;;;;;;;;5115053;28;20419;-79
2024/01/30 14:09:52;;;;;;;9.13;5.87;;;;;;;;;;5107053;28;20433;-78
2024/01/30 14:12:18;;;;;;;11.10;8.07;;;;;;;;;;5087267;28;20466;-78
2024/01/30 14:14:44;;;;;;;9.53;6.63;;;;;;;;;;5056106;28;20423;-79
2024/01/30 14:17:10;;;;;;;10.20;6.97;;;;;;;;;;5074187;28;20906;-80
2024/01/30 14:19:36;;;;;;;9.00;6.47;;;;;;;;;;5073973;28;20418;-81
2024/01/30 14:22:02;;;;;;;9.80;6.00;;;;;;;;;;5077026;28;20529;-79
2024/01/30 14:24:28;;;;;;;10.10;7.00;;;;;;;;;;5093623;28;20549;-83
2024/01/30 14:26:54;;;;;;;10.30;6.30;;;;;;;;;;5093990;28;20405;-80
2024/01/30 14:29:20;;;;;;;10.20;6.83;;;;;;;;;;5093775;28;20469;-79